createdAt,value
2023-08-15T00:02:26.455Z,4.60
2023-08-15T00:04:54.274Z,4.13
2023-08-15T00:07:22.424Z,4.53
2023-08-15T00:09:51.721Z,4.15
2023-08-15T00:12:19.415Z,4.07
2023-08-15T00:14:47.365Z,4.80
2023-08-15T00:17:15.098Z,4.30
2023-08-15T00:19:42.946Z,4.75
2023-08-15T00:22:10.855Z,4.60
2023-08-15T00:24:38.992Z,3.97
2023-08-15T00:27:08.357Z,4.25
2023-08-15T00:29:36.590Z,4.43
2023-08-15T00:32:04.727Z,4.43
2023-08-15T00:34:32.737Z,4.03
2023-08-15T00:37:00.478Z,4.25
2023-08-15T00:39:28.221Z,4.20
2023-08-15T00:41:57.280Z,3.88
2023-08-15T00:44:26.490Z,4.40
2023-08-15T00:46:54.311Z,4.18
2023-08-15T00:49:22.443Z,3.85
2023-08-15T00:51:51.471Z,4.82
2023-08-15T00:54:19.987Z,4.10
2023-08-15T00:56:47.837Z,4.07
2023-08-15T00:59:16.190Z,4.10
2023-08-15T01:01:45.623Z,4.25
2023-08-15T01:04:14.266Z,4.18
2023-08-15T01:06:42.015Z,4.53
2023-08-15T01:09:09.906Z,4.32
2023-08-15T01:11:48.578Z,3.97
2023-08-15T01:14:20.803Z,4.20
2023-08-15T01:16:52.829Z,4.15
2023-08-15T01:19:32.073Z,4.35
2023-08-15T01:22:01.168Z,4.13
2023-08-15T01:24:32.057Z,4.38
2023-08-15T01:26:59.800Z,4.35
2023-08-15T01:29:27.589Z,4.20
2023-08-15T01:32:02.724Z,4.18
2023-08-15T01:34:36.783Z,4.65
2023-08-15T01:37:09.694Z,4.40
2023-08-15T01:42:10.842Z,4.28
2023-08-15T01:44:39.674Z,4.80
2023-08-15T01:47:08.694Z,4.88
2023-08-15T01:49:36.896Z,4.35
2023-08-15T01:52:05.123Z,4.20
2023-08-15T01:54:33.038Z,4.28
2023-08-15T01:57:02.146Z,4.38
2023-08-15T01:59:30.056Z,4.18
2023-08-15T02:01:59.085Z,4.47
2023-08-15T02:04:26.867Z,4.05
2023-08-15T02:06:54.626Z,4.40
2023-08-15T02:09:22.431Z,4.03
2023-08-15T02:11:50.163Z,3.90
2023-08-15T02:14:19.257Z,4.03
2023-08-15T02:16:47.053Z,4.10
2023-08-15T02:19:14.857Z,3.95
2023-08-15T02:21:42.603Z,4.05
2023-08-15T02:24:10.525Z,3.75
2023-08-15T02:26:38.678Z,4.25
2023-08-15T02:29:06.755Z,4.03
2023-08-15T02:31:36.570Z,4.25
2023-08-15T02:34:05.393Z,4.03
2023-08-15T02:36:33.193Z,3.88
2023-08-15T02:39:00.887Z,4.05
2023-08-15T02:41:28.618Z,4.30
2023-08-15T02:43:56.472Z,3.50
2023-08-15T02:46:26.314Z,3.83
2023-08-15T02:48:55.579Z,3.67
2023-08-15T02:51:23.479Z,3.80
2023-08-15T02:53:51.294Z,3.65
2023-08-15T02:56:19.102Z,3.50
2023-08-15T02:58:47.033Z,3.88
2023-08-15T03:01:15.046Z,4.10
2023-08-15T03:03:42.873Z,3.90
2023-08-15T03:06:11.967Z,3.58
2023-08-15T03:08:39.785Z,3.67
2023-08-15T03:11:07.826Z,3.90
2023-08-15T03:13:35.612Z,3.67
2023-08-15T03:16:03.796Z,4.03
2023-08-15T03:18:33.851Z,4.13
2023-08-15T03:21:03.740Z,4.03
2023-08-15T03:23:34.003Z,3.83
2023-08-15T03:26:03.212Z,4.20
2023-08-15T03:28:35.569Z,4.18
2023-08-15T03:31:07.387Z,4.10
2023-08-15T03:33:39.424Z,4.22
2023-08-15T03:36:08.895Z,4.43
2023-08-15T03:38:39.432Z,4.70
2023-08-15T03:41:08.739Z,4.68
2023-08-15T03:43:37.878Z,4.10
2023-08-15T03:46:07.531Z,4.20
2023-08-15T03:48:37.678Z,4.18
2023-08-15T03:51:06.606Z,4.97
2023-08-15T03:53:34.421Z,4.95
2023-08-15T03:56:06.223Z,4.43
2023-08-15T03:58:34.568Z,4.43
2023-08-15T04:01:03.512Z,4.13
2023-08-15T04:03:32.647Z,4.47
2023-08-15T04:06:00.681Z,4.70
2023-08-15T04:08:28.472Z,4.70
2023-08-15T04:10:56.481Z,4.43
2023-08-15T04:13:25.734Z,5.13
2023-08-15T04:15:53.566Z,4.93
2023-08-15T04:18:21.410Z,5.43
2023-08-15T04:20:49.208Z,5.57
2023-08-15T04:23:16.955Z,4.95
2023-08-15T04:25:45.148Z,4.72
2023-08-15T04:28:13.069Z,5.05
2023-08-15T04:30:42.559Z,5.15
2023-08-15T04:33:12.570Z,5.93
2023-08-15T04:35:40.702Z,5.72
2023-08-15T04:38:09.118Z,5.55
2023-08-15T04:40:41.404Z,5.28
2023-08-15T04:43:10.830Z,5.15
2023-08-15T04:45:42.107Z,5.97
2023-08-15T04:48:14.170Z,5.60
2023-08-15T04:50:42.361Z,5.65
2023-08-15T04:53:10.274Z,5.53
2023-08-15T04:55:38.885Z,5.18
2023-08-15T04:58:10.329Z,5.47
2023-08-15T05:00:39.157Z,6.25
2023-08-15T05:03:07.868Z,5.18
2023-08-15T05:05:38.067Z,5.53
2023-08-15T05:08:07.783Z,5.50
2023-08-15T05:10:35.647Z,5.25
2023-08-15T05:13:04.352Z,5.22
2023-08-15T05:15:32.677Z,5.45
2023-08-15T05:18:01.019Z,4.80
2023-08-15T05:20:28.976Z,4.32
2023-08-15T05:22:58.107Z,4.90
2023-08-15T05:25:26.784Z,4.75
2023-08-15T05:27:55.063Z,4.85
2023-08-15T05:30:22.835Z,4.53
2023-08-15T05:32:51.326Z,4.70
2023-08-15T05:35:19.551Z,5.10
2023-08-15T05:37:47.461Z,4.45
2023-08-15T05:40:17.290Z,4.57
2023-08-15T05:42:45.129Z,4.50
2023-08-15T05:45:12.881Z,4.40
2023-08-15T05:47:40.717Z,4.53
2023-08-15T05:50:10.043Z,4.88
2023-08-15T05:52:37.950Z,4.65
2023-08-15T05:55:07.851Z,4.28
2023-08-15T05:57:37.819Z,3.97
2023-08-15T06:00:07.631Z,4.47
2023-08-15T06:02:41.278Z,4.32
2023-08-15T06:05:09.659Z,3.90
2023-08-15T06:07:37.608Z,4.18
2023-08-15T06:10:06.449Z,3.65
2023-08-15T06:12:34.329Z,3.60
2023-08-15T06:15:03.942Z,3.75
2023-08-15T06:17:31.815Z,3.90
2023-08-15T06:19:59.633Z,3.60
2023-08-15T06:22:27.404Z,3.88
2023-08-15T06:24:55.345Z,3.45
2023-08-15T06:27:23.310Z,3.50
2023-08-15T06:29:51.359Z,3.33
2023-08-15T06:32:28.170Z,3.90
2023-08-15T06:34:56.045Z,3.20
2023-08-15T06:37:24.644Z,3.13
2023-08-15T06:39:52.415Z,3.35
2023-08-15T06:42:20.266Z,2.65
2023-08-15T06:44:48.211Z,3.42
2023-08-15T06:47:16.222Z,3.30
2023-08-15T06:49:45.354Z,2.92
2023-08-15T06:52:13.112Z,2.83
2023-08-15T06:54:40.945Z,3.40
2023-08-15T06:57:08.995Z,3.72
2023-08-15T06:59:37.191Z,3.55
2023-08-15T07:02:07.085Z,3.25
2023-08-15T07:04:37.891Z,3.22
2023-08-15T07:07:07.799Z,3.22
2023-08-15T07:09:36.992Z,4.63
2023-08-15T07:12:06.212Z,4.93
2023-08-15T07:14:34.560Z,3.22
2023-08-15T07:17:02.781Z,3.80
2023-08-15T07:19:30.614Z,13.07
2023-08-15T07:21:58.367Z,39.05
2023-08-15T07:24:27.670Z,45.67
2023-08-15T07:26:55.569Z,43.75
2023-08-15T07:29:23.432Z,41.63
2023-08-15T07:31:52.195Z,38.03
2023-08-15T07:34:20.139Z,39.92
2023-08-15T07:36:47.914Z,59.33
2023-08-15T07:39:15.817Z,70.32
2023-08-15T07:41:44.881Z,85.57
2023-08-15T07:44:12.764Z,69.10
2023-08-15T07:46:41.011Z,62.00
2023-08-15T07:49:09.597Z,75.53
2023-08-15T07:51:37.877Z,76.63
2023-08-15T07:54:06.671Z,71.07
2023-08-15T07:56:35.189Z,55.95
2023-08-15T07:59:05.363Z,61.72
2023-08-15T08:01:33.576Z,57.80
2023-08-15T08:04:02.664Z,44.95
2023-08-15T08:09:01.531Z,42.20
2023-08-15T08:11:29.275Z,48.70
2023-08-15T08:13:57.161Z,64.65
2023-08-15T08:16:26.364Z,78.55
2023-08-15T08:18:54.220Z,91.68
2023-08-15T08:21:22.166Z,118.10
2023-08-15T08:23:49.960Z,117.43
2023-08-15T08:26:17.783Z,119.57
2023-08-15T08:28:45.538Z,114.75
2023-08-15T08:31:13.338Z,101.43
2023-08-15T08:33:42.524Z,89.00
2023-08-15T08:36:10.643Z,84.68
2023-08-15T08:38:39.119Z,69.65
2023-08-15T08:41:07.091Z,60.55
2023-08-15T08:43:35.102Z,56.55
2023-08-15T08:46:06.645Z,46.67
2023-08-15T08:48:36.381Z,41.60
2023-08-15T08:51:07.959Z,37.58
2023-08-15T08:53:36.107Z,36.67
2023-08-15T08:56:04.071Z,30.98
2023-08-15T08:58:32.843Z,28.92
2023-08-15T09:01:03.629Z,23.88
2023-08-15T09:03:31.941Z,22.27
2023-08-15T09:06:00.027Z,20.73
2023-08-15T09:08:29.367Z,18.02
2023-08-15T09:10:57.212Z,17.95
2023-08-15T09:13:25.389Z,16.92
2023-08-15T09:15:57.580Z,17.35
2023-08-15T09:18:25.776Z,15.77
2023-08-15T09:20:53.559Z,25.38
2023-08-15T09:23:21.554Z,43.72
2023-08-15T09:25:54.867Z,51.58
2023-08-15T09:28:24.009Z,56.63
2023-08-15T09:30:54.429Z,63.83
2023-08-15T09:33:23.365Z,63.65
2023-08-15T09:35:58.697Z,72.15
2023-08-15T09:38:28.050Z,93.35
2023-08-15T09:40:57.581Z,98.47
2023-08-15T09:43:25.664Z,93.88
2023-08-15T09:45:54.463Z,86.72
2023-08-15T09:48:22.577Z,79.28
2023-08-15T09:50:50.845Z,67.93
2023-08-15T09:53:18.753Z,63.50
2023-08-15T09:55:46.738Z,54.35
2023-08-15T09:58:17.856Z,49.88
2023-08-15T10:00:49.979Z,42.33
2023-08-15T10:03:21.143Z,34.63
2023-08-15T10:05:55.394Z,29.23
2023-08-15T10:08:24.660Z,23.83
2023-08-15T10:10:54.187Z,20.77
2023-08-15T10:13:27.923Z,17.63
2023-08-15T10:15:56.809Z,15.90
2023-08-15T10:18:25.908Z,13.15
2023-08-15T10:20:55.176Z,11.70
2023-08-15T10:23:26.408Z,9.68
2023-08-15T10:25:55.241Z,8.85
2023-08-15T10:28:24.637Z,7.03
2023-08-15T10:30:52.884Z,6.07
2023-08-15T10:33:22.836Z,5.60
2023-08-15T10:36:07.992Z,5.25
2023-08-15T10:38:40.945Z,4.30
2023-08-15T10:41:14.478Z,3.65
2023-08-15T10:43:48.305Z,4.00
2023-08-15T10:46:18.155Z,3.00
2023-08-15T10:49:01.745Z,3.00
2023-08-15T10:51:33.338Z,2.67
2023-08-15T10:54:02.564Z,2.53
2023-08-15T10:56:31.814Z,2.33
2023-08-15T10:59:06.805Z,1.90
2023-08-15T11:01:35.012Z,2.13
2023-08-15T11:04:04.637Z,1.73
2023-08-15T11:06:32.713Z,2.00
2023-08-15T11:09:01.070Z,1.40
2023-08-15T11:11:28.908Z,1.40
2023-08-15T11:13:59.201Z,1.60
2023-08-15T11:16:28.400Z,1.23
2023-08-15T11:18:58.689Z,1.77
2023-08-15T11:21:30.285Z,1.33
2023-08-15T11:24:00.391Z,1.30
2023-08-15T11:26:28.452Z,1.38
2023-08-15T11:28:56.224Z,1.50
2023-08-15T11:31:24.452Z,1.50
2023-08-15T11:33:54.083Z,1.35
2023-08-15T11:36:23.585Z,1.52
2023-08-15T11:38:51.472Z,1.80
2023-08-15T11:41:20.298Z,1.60
2023-08-15T11:43:49.382Z,1.23
2023-08-15T11:46:17.281Z,1.48
2023-08-15T11:48:46.726Z,17.45
2023-08-15T11:51:22.338Z,28.58
2023-08-15T11:53:51.495Z,37.55
2023-08-15T11:56:19.338Z,36.78
2023-08-15T11:58:47.586Z,34.03
2023-08-15T12:01:15.667Z,64.00
2023-08-15T12:03:43.506Z,62.60
2023-08-15T12:06:13.944Z,82.10
2023-08-15T12:08:47.024Z,94.53
2023-08-15T12:11:20.253Z,79.82
2023-08-15T12:13:48.224Z,82.47
2023-08-15T12:16:16.121Z,69.78
2023-08-15T12:18:44.031Z,53.25
2023-08-15T12:21:14.058Z,38.63
2023-08-15T12:23:44.702Z,34.97
2023-08-15T12:26:12.596Z,30.92
2023-08-15T12:28:40.459Z,45.70
2023-08-15T12:31:09.496Z,69.72
2023-08-15T12:36:08.259Z,80.10
2023-08-15T12:38:36.066Z,67.13
2023-08-15T12:41:08.258Z,61.33
2023-08-15T12:43:36.114Z,64.93
2023-08-15T12:46:05.270Z,57.60
2023-08-15T12:48:33.177Z,57.28
2023-08-15T12:51:01.232Z,48.92
2023-08-15T12:53:29.108Z,54.35
2023-08-15T12:55:57.000Z,100.97
2023-08-15T12:58:26.126Z,112.07
2023-08-15T13:00:54.073Z,114.32
2023-08-15T13:03:21.931Z,106.85
2023-08-15T13:05:50.650Z,98.35
2023-08-15T13:08:20.374Z,77.10
2023-08-15T13:10:48.852Z,71.72
2023-08-15T13:13:16.704Z,49.63
2023-08-15T13:15:45.820Z,47.72
2023-08-15T13:18:13.603Z,46.60
2023-08-15T13:20:41.491Z,35.45
2023-08-15T13:23:09.622Z,30.90
2023-08-15T13:25:37.963Z,27.60
2023-08-15T13:28:06.759Z,23.27
2023-08-15T13:30:34.585Z,19.17
2023-08-15T13:33:04.485Z,15.63
2023-08-15T13:35:32.841Z,14.32
2023-08-15T13:38:00.631Z,11.30
2023-08-15T13:40:28.331Z,9.80
2023-08-15T13:42:56.176Z,9.38
2023-08-15T13:45:24.123Z,8.70
2023-08-15T13:47:51.959Z,7.00
2023-08-15T13:50:21.232Z,6.90
2023-08-15T13:52:49.047Z,6.13
2023-08-15T13:55:17.426Z,6.15
2023-08-15T13:57:45.239Z,6.18
2023-08-15T14:00:13.778Z,5.28
2023-08-15T14:02:41.783Z,4.53
2023-08-15T14:05:10.434Z,3.50
2023-08-15T14:07:39.601Z,3.50
2023-08-15T14:10:08.265Z,3.15
2023-08-15T14:12:36.236Z,2.97
2023-08-15T14:15:04.232Z,3.50
2023-08-15T14:17:31.992Z,2.85
2023-08-15T14:19:59.702Z,2.78
2023-08-15T14:22:28.042Z,3.03
2023-08-15T14:24:57.153Z,2.15
2023-08-15T14:27:25.002Z,2.20
2023-08-15T14:29:52.927Z,2.38
2023-08-15T14:32:21.147Z,2.22
2023-08-15T14:34:50.554Z,2.03
2023-08-15T14:37:18.321Z,3.60
2023-08-15T14:39:46.351Z,13.15
2023-08-15T14:42:15.662Z,26.48
2023-08-15T14:44:43.402Z,32.30
2023-08-15T14:47:11.341Z,31.90
2023-08-15T14:49:39.150Z,30.38
2023-08-15T14:52:07.365Z,26.70
2023-08-15T14:54:36.775Z,23.95
2023-08-15T14:57:05.202Z,36.30
2023-08-15T14:59:34.452Z,50.67
2023-08-15T15:02:02.998Z,54.45
2023-08-15T15:04:31.213Z,52.42
2023-08-15T15:06:59.017Z,49.88
2023-08-15T15:09:26.921Z,41.45
2023-08-15T15:11:54.698Z,46.45
2023-08-15T15:14:22.838Z,52.63
2023-08-15T15:16:51.988Z,54.70
2023-08-15T15:19:19.784Z,49.60
2023-08-15T15:21:48.640Z,42.30
2023-08-15T15:24:16.701Z,36.33
2023-08-15T15:26:45.396Z,36.92
2023-08-15T15:29:13.530Z,56.08
2023-08-15T15:31:41.445Z,70.45
2023-08-15T15:34:10.840Z,94.82
2023-08-15T15:36:38.928Z,92.35
2023-08-15T15:39:06.712Z,85.07
2023-08-15T15:41:34.718Z,75.50
2023-08-15T15:44:02.447Z,58.42
2023-08-15T15:46:37.872Z,43.90
2023-08-15T15:49:11.024Z,41.75
2023-08-15T15:51:39.487Z,65.25
2023-08-15T15:54:08.115Z,89.20
2023-08-15T15:56:36.097Z,98.78
2023-08-15T15:59:06.564Z,136.20
2023-08-15T16:01:34.763Z,128.85
2023-08-15T16:04:02.988Z,108.82
2023-08-15T16:06:32.878Z,101.60
2023-08-15T16:09:00.654Z,91.07
2023-08-15T16:11:28.441Z,75.32
2023-08-15T16:13:56.274Z,62.22
2023-08-15T16:16:24.088Z,49.72
2023-08-15T16:18:51.947Z,39.58
2023-08-15T16:21:21.800Z,33.22
2023-08-15T16:23:51.811Z,29.20
2023-08-15T16:26:20.522Z,26.77
2023-08-15T16:28:48.861Z,25.23
2023-08-15T16:31:16.980Z,21.23
2023-08-15T16:33:44.906Z,16.45
2023-08-15T16:36:12.663Z,13.35
2023-08-15T16:38:40.921Z,11.52
2023-08-15T16:41:10.057Z,9.02
2023-08-15T16:43:38.401Z,6.65
2023-08-15T16:46:06.340Z,6.75
2023-08-15T16:48:35.581Z,5.07
2023-08-15T16:51:03.621Z,7.78
2023-08-15T16:53:31.515Z,22.80
2023-08-15T16:55:59.335Z,46.13
2023-08-15T16:58:28.473Z,48.58
2023-08-15T17:00:56.312Z,37.78
2023-08-15T17:03:24.703Z,31.02
2023-08-15T17:05:52.589Z,22.88
2023-08-15T17:08:20.542Z,22.52
2023-08-15T17:10:48.301Z,54.53
2023-08-15T17:13:16.068Z,49.35
2023-08-15T17:15:47.353Z,39.85
2023-08-15T17:18:15.110Z,30.35
2023-08-15T17:20:43.029Z,24.95
2023-08-15T17:23:11.349Z,20.10
2023-08-15T17:25:39.219Z,15.30
2023-08-15T17:28:08.133Z,13.07
2023-08-15T17:30:36.377Z,10.50
2023-08-15T17:33:06.957Z,8.93
2023-08-15T17:35:34.756Z,7.60
2023-08-15T17:38:02.550Z,6.07
2023-08-15T17:40:30.376Z,4.30
2023-08-15T17:42:58.263Z,3.50
2023-08-15T17:45:26.353Z,3.17
2023-08-15T17:47:54.133Z,2.42
2023-08-15T17:50:23.467Z,2.22
2023-08-15T17:52:51.561Z,1.70
2023-08-15T17:55:19.335Z,1.65
2023-08-15T17:57:48.239Z,1.60
2023-08-15T18:00:17.510Z,1.02
2023-08-15T18:02:45.708Z,1.10
2023-08-15T18:05:15.576Z,1.30
2023-08-15T18:07:44.787Z,1.10
2023-08-15T18:10:12.679Z,0.80
2023-08-15T18:12:40.470Z,1.77
2023-08-15T18:15:11.282Z,114.13
2023-08-15T18:17:39.556Z,51.53
2023-08-15T18:20:08.295Z,72.63
2023-08-15T18:22:38.825Z,89.20
2023-08-15T18:25:09.372Z,49.22
2023-08-15T18:27:37.654Z,35.60
2023-08-15T18:30:06.757Z,27.17
2023-08-15T18:32:34.679Z,21.85
2023-08-15T18:35:02.808Z,17.95
2023-08-15T18:37:30.676Z,12.40
2023-08-15T18:39:58.419Z,9.48
2023-08-15T18:42:27.539Z,20.63
2023-08-15T18:44:55.259Z,98.70
2023-08-15T18:47:23.038Z,85.07
2023-08-15T18:49:50.779Z,48.30
2023-08-15T18:52:18.499Z,30.73
2023-08-15T18:54:46.365Z,20.10
2023-08-15T18:57:14.221Z,14.65
2023-08-15T18:59:43.721Z,10.25
2023-08-15T19:02:11.508Z,7.63
2023-08-15T19:04:39.360Z,6.22
2023-08-15T19:07:07.249Z,5.43
2023-08-15T19:09:35.009Z,3.78
2023-08-15T19:12:03.252Z,3.22
2023-08-15T19:14:31.089Z,2.88
2023-08-15T19:17:00.171Z,2.38
2023-08-15T19:19:28.085Z,2.10
2023-08-15T19:21:55.853Z,2.03
2023-08-15T19:24:23.763Z,1.40
2023-08-15T19:26:51.611Z,1.92
2023-08-15T19:29:19.334Z,2.20
2023-08-15T19:31:47.213Z,1.83
2023-08-15T19:34:17.696Z,1.83
2023-08-15T19:36:45.403Z,1.58
2023-08-15T19:39:13.364Z,1.80
2023-08-15T19:41:41.710Z,1.75
2023-08-15T19:44:09.489Z,1.40
2023-08-15T19:46:37.866Z,6.10
2023-08-15T19:49:06.791Z,65.03
2023-08-15T19:51:35.894Z,79.03
2023-08-15T19:54:03.805Z,69.32
2023-08-15T19:56:31.594Z,58.63
2023-08-15T19:58:59.334Z,92.47
2023-08-15T20:01:27.195Z,97.93
2023-08-15T20:03:54.971Z,77.65
2023-08-15T20:06:22.672Z,57.42
2023-08-15T20:08:51.785Z,39.40
2023-08-15T20:11:19.520Z,31.27
2023-08-15T20:13:47.267Z,21.35
2023-08-15T20:16:15.296Z,30.27
2023-08-15T20:18:43.197Z,66.25
2023-08-15T20:21:10.950Z,59.03
2023-08-15T20:23:39.657Z,44.97
2023-08-15T20:26:09.353Z,33.47
2023-08-15T20:28:37.400Z,27.92
2023-08-15T20:31:05.830Z,19.35
2023-08-15T20:33:32.638Z,60.35
2023-08-15T20:36:00.361Z,75.03
2023-08-15T20:38:28.964Z,58.13
2023-08-15T20:40:56.992Z,49.53
2023-08-15T20:43:26.163Z,36.22
2023-08-15T20:45:54.049Z,27.35
2023-08-15T20:48:23.016Z,21.10
2023-08-15T20:50:50.825Z,45.97
2023-08-15T20:53:18.541Z,108.43
2023-08-15T20:55:46.380Z,150.65
2023-08-15T20:58:14.111Z,134.07
2023-08-15T21:00:44.981Z,105.97
2023-08-15T21:03:14.782Z,79.80
2023-08-15T21:05:43.590Z,60.53
2023-08-15T21:08:11.287Z,44.22
2023-08-15T21:10:39.238Z,33.60
2023-08-15T21:13:07.247Z,25.75
2023-08-15T21:15:35.799Z,20.15
2023-08-15T21:18:05.352Z,14.82
2023-08-15T21:20:33.126Z,12.65
2023-08-15T21:23:00.893Z,9.18
2023-08-15T21:25:28.650Z,6.97
2023-08-15T21:27:56.469Z,5.55
2023-08-15T21:30:24.309Z,5.32
2023-08-15T21:32:52.201Z,4.13
2023-08-15T21:35:21.343Z,4.07
2023-08-15T21:37:49.182Z,3.47
2023-08-15T21:40:17.083Z,2.95
2023-08-15T21:42:44.818Z,2.50
2023-08-15T21:45:12.686Z,23.90
2023-08-15T21:47:40.685Z,52.78
2023-08-15T21:50:10.546Z,72.28
2023-08-15T21:52:39.656Z,58.55
2023-08-15T21:55:08.314Z,46.28
2023-08-15T21:57:36.131Z,71.80
2023-08-15T22:00:05.533Z,64.63
2023-08-15T22:02:40.093Z,51.08
2023-08-15T22:05:09.850Z,36.80
2023-08-15T22:07:39.485Z,30.48
2023-08-15T22:10:09.469Z,40.90
2023-08-15T22:12:37.959Z,62.75
2023-08-15T22:15:06.972Z,74.55
2023-08-15T22:17:45.546Z,62.55
2023-08-15T22:20:14.806Z,59.00
2023-08-15T22:22:44.302Z,135.15
2023-08-15T22:25:12.165Z,187.25
2023-08-15T22:27:40.013Z,172.27
2023-08-15T22:30:10.051Z,138.70
2023-08-15T22:32:38.215Z,101.95
2023-08-15T22:35:06.829Z,83.30
2023-08-15T22:37:34.667Z,61.15
2023-08-15T22:40:05.107Z,48.08
2023-08-15T22:42:33.861Z,70.93
2023-08-15T22:45:01.656Z,97.43
2023-08-15T22:47:29.520Z,137.35
2023-08-15T22:49:57.373Z,151.93
2023-08-15T22:52:25.183Z,142.13
2023-08-15T22:54:53.431Z,104.25
2023-08-15T22:57:22.657Z,77.25
2023-08-15T22:59:50.597Z,58.63
2023-08-15T23:02:18.386Z,45.08
2023-08-15T23:04:46.339Z,31.90
2023-08-15T23:07:14.460Z,24.65
2023-08-15T23:09:42.222Z,20.35
2023-08-15T23:12:10.256Z,13.98
2023-08-15T23:14:39.346Z,11.18
2023-08-15T23:17:07.239Z,9.50
2023-08-15T23:19:34.983Z,7.70
2023-08-15T23:22:04.069Z,6.70
2023-08-15T23:24:31.861Z,5.43
2023-08-15T23:27:00.646Z,5.32
2023-08-15T23:29:28.773Z,5.32
2023-08-15T23:31:59.716Z,4.80
2023-08-15T23:34:27.845Z,4.07
2023-08-15T23:36:55.795Z,3.78
2023-08-15T23:39:23.654Z,4.10
2023-08-15T23:41:51.549Z,4.20
2023-08-15T23:44:19.774Z,3.33
2023-08-15T23:46:48.619Z,3.35
2023-08-15T23:49:18.569Z,3.63
2023-08-15T23:51:48.784Z,4.00
2023-08-15T23:54:16.830Z,3.72
2023-08-15T23:56:44.570Z,3.70
2023-08-15T23:59:12.385Z,3.00
